createdAt,value
2023-02-09T00:00:29.065Z,78.17
2023-02-09T00:02:58.175Z,78.79
2023-02-09T00:05:25.957Z,78.27
2023-02-09T00:07:54.044Z,79.91
2023-02-09T00:10:21.887Z,79.31
2023-02-09T00:13:06.925Z,78.81
2023-02-09T00:15:34.737Z,78.95
2023-02-09T00:18:03.947Z,79.21
2023-02-09T00:20:31.763Z,78.56
2023-02-09T00:22:59.507Z,77.92
2023-02-09T00:25:27.304Z,75.61
2023-02-09T00:27:55.179Z,78.39
2023-02-09T00:30:22.898Z,77.49
2023-02-09T00:32:50.583Z,78.76
2023-02-09T00:35:20.453Z,78.64
2023-02-09T00:37:48.281Z,78.18
2023-02-09T00:40:16.039Z,77.25
2023-02-09T00:42:44.005Z,78.83
2023-02-09T00:45:11.738Z,77.42
2023-02-09T00:47:39.477Z,78.34
2023-02-09T00:50:08.529Z,77.76
2023-02-09T00:52:37.786Z,78.55
2023-02-09T00:55:06.187Z,77.82
2023-02-09T00:57:33.891Z,77.76
2023-02-09T01:00:01.648Z,77.17
2023-02-09T01:02:29.636Z,76.78
2023-02-09T01:04:57.434Z,77.29
2023-02-09T01:07:25.260Z,78.48
2023-02-09T01:09:54.370Z,77.79
2023-02-09T01:12:22.171Z,78.51
2023-02-09T01:14:49.936Z,80.01
2023-02-09T01:17:17.699Z,79.15
2023-02-09T01:19:45.448Z,82.21
2023-02-09T01:22:16.243Z,82.09
2023-02-09T01:24:44.023Z,84.26
2023-02-09T01:27:13.142Z,80.96
2023-02-09T01:29:40.957Z,79.82
2023-02-09T01:32:09.191Z,81.26
2023-02-09T01:34:37.207Z,82.30
2023-02-09T01:37:05.034Z,84.66
2023-02-09T01:39:33.295Z,84.71
2023-02-09T01:42:01.111Z,84.97
2023-02-09T01:45:06.323Z,84.49
2023-02-09T01:47:39.161Z,84.54
2023-02-09T01:50:07.469Z,83.97
2023-02-09T01:52:35.532Z,83.26
2023-02-09T01:55:07.535Z,80.83
2023-02-09T01:57:39.292Z,79.43
2023-02-09T02:00:11.371Z,77.74
2023-02-09T02:02:40.301Z,76.69
2023-02-09T02:05:09.554Z,78.18
2023-02-09T02:07:41.924Z,79.59
2023-02-09T02:10:10.106Z,76.33
2023-02-09T02:12:39.364Z,80.26
2023-02-09T02:15:09.512Z,78.07
2023-02-09T02:17:55.357Z,80.53
2023-02-09T02:20:50.846Z,81.81
2023-02-09T02:23:27.537Z,80.10
2023-02-09T02:26:29.792Z,78.57
2023-02-09T02:29:46.039Z,77.81
2023-02-09T02:32:31.696Z,78.39
2023-02-09T02:35:05.683Z,79.81
2023-02-09T02:37:49.720Z,79.20
2023-02-09T02:40:28.387Z,83.15
2023-02-09T02:43:02.423Z,81.54
2023-02-09T02:45:39.617Z,81.06
2023-02-09T02:48:19.753Z,82.63
2023-02-09T02:50:54.073Z,80.89
2023-02-09T02:53:26.438Z,77.63
2023-02-09T02:55:55.874Z,78.28
2023-02-09T02:58:26.836Z,78.04
2023-02-09T03:00:58.996Z,81.24
2023-02-09T03:03:33.203Z,78.17
2023-02-09T03:06:04.208Z,79.50
2023-02-09T03:08:32.075Z,80.20
2023-02-09T03:11:00.095Z,79.50
2023-02-09T03:13:40.888Z,78.06
2023-02-09T03:16:21.578Z,78.42
2023-02-09T03:19:04.836Z,76.85
2023-02-09T03:21:43.258Z,78.69
2023-02-09T03:24:20.663Z,77.08
2023-02-09T03:26:53.884Z,78.54
2023-02-09T03:29:24.616Z,79.51
2023-02-09T03:31:53.236Z,79.79
2023-02-09T03:34:22.559Z,79.26
2023-02-09T03:36:53.316Z,81.46
2023-02-09T03:39:21.101Z,79.97
2023-02-09T03:41:48.936Z,80.36
2023-02-09T03:44:28.917Z,79.14
2023-02-09T03:47:01.405Z,78.21
2023-02-09T03:49:32.833Z,79.93
2023-02-09T03:52:01.654Z,78.93
2023-02-09T03:54:30.048Z,78.87
2023-02-09T03:56:58.187Z,80.18
2023-02-09T03:59:26.905Z,81.18
2023-02-09T04:01:55.346Z,80.98
2023-02-09T04:04:24.176Z,80.64
2023-02-09T04:06:54.094Z,79.96
2023-02-09T04:09:21.878Z,79.90
2023-02-09T04:11:49.848Z,82.63
2023-02-09T04:14:18.146Z,79.97
2023-02-09T04:16:46.064Z,78.76
2023-02-09T04:19:13.864Z,78.36
2023-02-09T04:21:41.745Z,79.29
2023-02-09T04:24:11.443Z,79.14
2023-02-09T04:26:39.290Z,79.78
2023-02-09T04:29:07.132Z,78.06
2023-02-09T04:31:35.998Z,79.34
2023-02-09T04:34:03.911Z,80.05
2023-02-09T04:36:31.881Z,79.34
2023-02-09T04:38:59.609Z,79.65
2023-02-09T04:41:28.768Z,80.01
2023-02-09T04:43:56.495Z,79.40
2023-02-09T04:46:24.391Z,79.68
2023-02-09T04:48:52.281Z,77.18
2023-02-09T04:51:20.008Z,79.43
2023-02-09T04:53:47.806Z,80.78
2023-02-09T04:56:16.690Z,80.12
2023-02-09T04:59:03.285Z,80.88
2023-02-09T05:01:31.718Z,80.47
2023-02-09T05:03:59.457Z,78.76
2023-02-09T05:06:27.452Z,79.40
2023-02-09T05:08:55.164Z,79.51
2023-02-09T05:11:25.289Z,79.87
2023-02-09T05:13:54.706Z,77.24
2023-02-09T05:16:22.523Z,76.06
2023-02-09T05:18:51.088Z,76.09
2023-02-09T05:21:18.950Z,76.59
2023-02-09T05:23:46.795Z,76.85
2023-02-09T05:26:14.587Z,76.79
2023-02-09T05:28:42.324Z,77.70
2023-02-09T05:31:11.549Z,78.35
2023-02-09T05:33:39.363Z,78.20
2023-02-09T05:36:09.438Z,77.91
2023-02-09T05:38:37.697Z,75.88
2023-02-09T05:41:06.508Z,76.47
2023-02-09T05:43:34.315Z,75.63
2023-02-09T05:46:02.106Z,78.82
2023-02-09T05:48:31.377Z,76.71
2023-02-09T05:50:59.196Z,76.92
2023-02-09T05:53:26.942Z,77.07
2023-02-09T05:55:54.757Z,78.29
2023-02-09T05:58:22.505Z,79.75
2023-02-09T06:00:50.222Z,79.46
2023-02-09T06:03:18.080Z,78.76
2023-02-09T06:05:47.872Z,79.01
2023-02-09T06:08:15.833Z,80.37
2023-02-09T06:10:43.861Z,79.31
2023-02-09T06:13:11.869Z,78.69
2023-02-09T06:15:39.738Z,79.58
2023-02-09T06:18:07.509Z,80.56
2023-02-09T06:20:35.260Z,78.10
2023-02-09T06:23:04.483Z,79.97
2023-02-09T06:25:32.200Z,78.26
2023-02-09T06:27:59.971Z,79.14
2023-02-09T06:30:27.783Z,79.43
2023-02-09T06:32:55.572Z,79.26
2023-02-09T06:35:23.438Z,78.96
2023-02-09T06:37:51.145Z,76.64
2023-02-09T06:40:20.784Z,79.30
2023-02-09T06:42:48.640Z,79.08
2023-02-09T06:45:18.031Z,79.59
2023-02-09T06:47:46.961Z,80.00
2023-02-09T06:50:18.893Z,80.49
2023-02-09T06:52:47.269Z,78.77
2023-02-09T06:55:15.469Z,78.90
2023-02-09T06:57:44.558Z,79.60
2023-02-09T07:00:14.041Z,79.94
2023-02-09T07:02:43.786Z,79.40
2023-02-09T07:05:11.760Z,79.02
2023-02-09T07:07:40.138Z,81.34
2023-02-09T07:10:10.067Z,80.07
2023-02-09T07:12:40.503Z,80.07
2023-02-09T07:15:10.760Z,80.24
2023-02-09T07:17:38.635Z,80.03
2023-02-09T07:20:07.608Z,79.27
2023-02-09T07:22:35.396Z,80.47
2023-02-09T07:25:03.288Z,79.36
2023-02-09T07:27:33.309Z,78.10
2023-02-09T07:30:01.435Z,79.03
2023-02-09T07:32:30.902Z,80.31
2023-02-09T07:34:59.411Z,80.97
2023-02-09T07:37:27.143Z,79.64
2023-02-09T07:39:55.120Z,81.12
2023-02-09T07:42:23.464Z,80.28
2023-02-09T07:44:51.299Z,81.67
2023-02-09T07:47:19.073Z,81.05
2023-02-09T07:49:48.155Z,81.01
2023-02-09T07:52:15.923Z,77.68
2023-02-09T07:54:43.764Z,77.80
2023-02-09T07:57:13.600Z,78.41
2023-02-09T07:59:41.449Z,77.93
2023-02-09T08:02:19.026Z,77.21
2023-02-09T08:04:48.213Z,76.93
2023-02-09T08:07:16.061Z,77.35
2023-02-09T08:09:45.105Z,79.37
2023-02-09T08:12:13.149Z,79.35
2023-02-09T08:14:48.039Z,78.58
2023-02-09T08:17:24.241Z,79.99
2023-02-09T08:19:55.706Z,79.42
2023-02-09T08:22:26.014Z,78.43
2023-02-09T08:24:54.546Z,79.69
2023-02-09T08:27:23.244Z,79.18
2023-02-09T08:29:51.046Z,78.85
2023-02-09T08:32:18.902Z,77.75
2023-02-09T08:34:46.700Z,76.27
2023-02-09T08:37:16.041Z,77.13
2023-02-09T08:39:45.124Z,77.11
2023-02-09T08:42:12.998Z,75.57
2023-02-09T08:44:40.785Z,75.18
2023-02-09T08:47:08.633Z,75.99
2023-02-09T08:49:37.158Z,76.63
2023-02-09T08:52:05.287Z,75.78
2023-02-09T08:54:34.353Z,78.46
2023-02-09T08:57:02.660Z,80.77
2023-02-09T08:59:30.568Z,78.98
2023-02-09T09:01:58.286Z,81.39
2023-02-09T09:04:26.091Z,81.46
2023-02-09T09:06:54.857Z,83.12
2023-02-09T09:09:22.578Z,81.61
2023-02-09T09:11:51.817Z,81.64
2023-02-09T09:14:19.508Z,80.70
2023-02-09T09:16:47.376Z,79.20
2023-02-09T09:19:15.265Z,80.22
2023-02-09T09:21:43.064Z,79.55
2023-02-09T09:24:10.818Z,77.63
2023-02-09T09:26:38.584Z,76.35
2023-02-09T09:29:07.759Z,77.36
2023-02-09T09:31:37.160Z,77.50
2023-02-09T09:34:05.056Z,78.35
2023-02-09T09:36:32.811Z,76.64
2023-02-09T09:39:00.611Z,74.84
2023-02-09T09:41:32.780Z,75.44
2023-02-09T09:44:02.112Z,77.68
2023-02-09T09:46:37.867Z,76.94
2023-02-09T09:49:06.602Z,76.31
2023-02-09T09:51:40.564Z,76.90
2023-02-09T09:54:15.202Z,75.11
2023-02-09T09:56:43.079Z,76.04
2023-02-09T09:59:17.674Z,73.87
2023-02-09T10:01:48.306Z,72.90
2023-02-09T10:04:17.254Z,72.64
2023-02-09T10:06:47.358Z,71.59
2023-02-09T10:09:26.089Z,71.79
2023-02-09T10:12:02.040Z,71.30
2023-02-09T10:14:29.872Z,73.20
2023-02-09T10:16:59.093Z,71.98
2023-02-09T10:19:29.305Z,70.61
2023-02-09T10:21:57.713Z,68.04
2023-02-09T10:24:27.333Z,68.28
2023-02-09T10:27:08.689Z,67.91
2023-02-09T10:29:36.960Z,68.29
2023-02-09T10:32:14.571Z,67.75
2023-02-09T10:34:46.139Z,70.53
2023-02-09T10:37:27.369Z,69.46
2023-02-09T10:40:01.734Z,71.43
2023-02-09T10:42:31.527Z,69.22
2023-02-09T10:45:07.821Z,70.44
2023-02-09T10:47:37.036Z,71.93
2023-02-09T10:50:17.130Z,70.98
2023-02-09T10:52:56.735Z,71.56
2023-02-09T10:55:29.506Z,71.83
2023-02-09T10:58:25.905Z,70.78
2023-02-09T11:01:01.925Z,70.53
2023-02-09T11:03:31.153Z,72.07
2023-02-09T11:06:02.363Z,70.61
2023-02-09T11:08:41.360Z,70.54
2023-02-09T11:11:25.925Z,68.90
2023-02-09T11:13:54.087Z,67.99
2023-02-09T11:16:46.855Z,67.74
2023-02-09T11:19:31.320Z,70.61
2023-02-09T11:22:11.835Z,68.99
2023-02-09T11:24:53.104Z,72.68
2023-02-09T11:27:37.486Z,71.47
2023-02-09T11:30:17.455Z,70.06
2023-02-09T11:32:51.179Z,70.58
2023-02-09T11:35:23.415Z,70.09
2023-02-09T11:37:57.680Z,68.85
2023-02-09T11:40:29.583Z,68.39
2023-02-09T11:43:06.929Z,69.30
2023-02-09T11:45:40.219Z,69.49
2023-02-09T11:48:12.358Z,68.65
2023-02-09T11:50:52.703Z,69.43
2023-02-09T11:53:29.070Z,69.03
2023-02-09T11:55:59.637Z,69.77
2023-02-09T11:58:53.275Z,70.24
2023-02-09T12:01:30.866Z,69.04
2023-02-09T12:04:06.228Z,71.54
2023-02-09T12:06:40.903Z,69.31
2023-02-09T12:09:21.174Z,67.88
2023-02-09T12:11:58.720Z,68.17
2023-02-09T12:14:57.255Z,66.88
2023-02-09T12:17:31.544Z,67.08
2023-02-09T12:20:01.383Z,68.61
2023-02-09T12:22:49.184Z,67.35
2023-02-09T12:25:46.171Z,65.48
2023-02-09T12:28:38.652Z,66.56
2023-02-09T12:31:16.305Z,65.93
2023-02-09T12:34:10.429Z,66.34
2023-02-09T12:36:38.436Z,65.65
2023-02-09T12:39:24.273Z,65.96
2023-02-09T12:42:26.631Z,65.15
2023-02-09T12:45:00.574Z,66.47
2023-02-09T12:47:46.216Z,68.13
2023-02-09T12:50:24.552Z,67.89
2023-02-09T12:53:29.825Z,66.83
2023-02-09T12:56:05.248Z,64.60
2023-02-09T12:58:39.178Z,64.39
2023-02-09T13:01:07.858Z,64.63
2023-02-09T13:03:45.169Z,64.85
2023-02-09T13:06:27.567Z,61.86
2023-02-09T13:08:58.393Z,63.90
2023-02-09T13:11:33.333Z,65.84
2023-02-09T13:14:05.943Z,66.48
2023-02-09T13:16:50.851Z,67.16
2023-02-09T13:19:45.989Z,67.10
2023-02-09T13:22:27.905Z,66.24
2023-02-09T13:25:00.385Z,65.80
2023-02-09T13:27:30.575Z,67.69
2023-02-09T13:30:00.151Z,70.23
2023-02-09T13:32:36.845Z,68.92
2023-02-09T13:35:15.791Z,66.31
2023-02-09T13:37:47.662Z,65.01
2023-02-09T13:40:18.957Z,65.75
2023-02-09T13:42:57.976Z,67.44
2023-02-09T13:45:28.037Z,69.44
2023-02-09T13:47:57.161Z,68.77
2023-02-09T13:50:28.206Z,67.87
2023-02-09T13:53:08.063Z,66.64
2023-02-09T13:55:39.691Z,69.28
2023-02-09T13:58:15.323Z,70.13
2023-02-09T14:00:46.595Z,68.60
2023-02-09T14:03:19.318Z,68.31
2023-02-09T14:05:52.835Z,67.92
2023-02-09T14:08:22.273Z,69.01
2023-02-09T14:10:56.554Z,69.79
2023-02-09T14:13:30.950Z,69.39
2023-02-09T14:16:07.860Z,68.63
2023-02-09T14:18:50.732Z,68.72
2023-02-09T14:21:25.066Z,67.84
2023-02-09T14:24:21.502Z,68.24
2023-02-09T14:26:52.537Z,67.81
2023-02-09T14:29:25.201Z,66.46
2023-02-09T14:31:54.422Z,65.04
2023-02-09T14:34:37.594Z,65.27
2023-02-09T14:37:29.278Z,66.02
2023-02-09T14:40:01.006Z,66.30
2023-02-09T14:42:30.659Z,67.08
2023-02-09T14:45:02.744Z,67.14
2023-02-09T14:47:38.434Z,66.85
2023-02-09T14:50:07.835Z,66.61
2023-02-09T14:52:38.869Z,66.38
2023-02-09T14:55:12.538Z,65.80
2023-02-09T14:57:40.231Z,65.10
2023-02-09T15:00:21.939Z,64.28
2023-02-09T15:02:50.694Z,66.44
2023-02-09T15:05:19.188Z,64.63
2023-02-09T15:07:49.328Z,65.24
2023-02-09T15:10:27.788Z,65.28
2023-02-09T15:12:56.057Z,65.24
2023-02-09T15:15:26.259Z,64.76
2023-02-09T15:17:55.278Z,65.12
2023-02-09T15:20:25.403Z,66.80
2023-02-09T15:22:53.690Z,68.45
2023-02-09T15:25:22.641Z,69.14
2023-02-09T15:27:52.512Z,69.72
2023-02-09T15:30:22.528Z,69.31
2023-02-09T15:32:51.851Z,69.78
2023-02-09T15:35:21.724Z,68.40
2023-02-09T15:37:53.271Z,67.07
2023-02-09T15:40:45.013Z,67.76
2023-02-09T15:43:29.259Z,68.79
2023-02-09T15:46:14.931Z,67.86
2023-02-09T15:48:44.488Z,69.38
2023-02-09T15:51:12.407Z,69.05
2023-02-09T15:53:40.474Z,68.42
2023-02-09T15:56:09.204Z,70.47
2023-02-09T15:58:40.319Z,71.78
2023-02-09T16:01:08.036Z,70.65
2023-02-09T16:03:36.095Z,71.00
2023-02-09T16:06:12.809Z,70.00
2023-02-09T16:08:40.635Z,70.08
2023-02-09T16:11:17.729Z,70.75
2023-02-09T16:13:45.489Z,71.03
2023-02-09T16:16:17.271Z,71.18
2023-02-09T16:18:45.909Z,71.11
2023-02-09T16:21:21.028Z,71.50
2023-02-09T16:23:49.078Z,71.08
2023-02-09T16:26:16.921Z,72.07
2023-02-09T16:28:44.627Z,70.99
2023-02-09T16:31:12.393Z,70.50
2023-02-09T16:33:41.644Z,71.22
2023-02-09T16:36:17.016Z,71.38
2023-02-09T16:38:44.830Z,71.45
2023-02-09T16:41:39.711Z,71.73
2023-02-09T16:44:16.909Z,72.29
2023-02-09T16:46:46.950Z,71.93
2023-02-09T16:49:30.789Z,72.16
2023-02-09T16:52:02.238Z,72.47
2023-02-09T16:54:32.020Z,72.09
2023-02-09T16:57:00.856Z,72.79
2023-02-09T16:59:28.912Z,72.66
2023-02-09T17:01:59.796Z,73.02
2023-02-09T17:04:27.775Z,73.13
2023-02-09T17:06:55.875Z,73.10
2023-02-09T17:09:24.957Z,73.31
2023-02-09T17:11:52.704Z,73.36
2023-02-09T17:14:20.463Z,73.72
2023-02-09T17:16:49.662Z,74.92
2023-02-09T17:19:19.094Z,75.40
2023-02-09T17:21:46.931Z,74.97
2023-02-09T17:24:17.460Z,75.33
2023-02-09T17:26:46.700Z,75.63
2023-02-09T17:29:14.501Z,76.38
2023-02-09T17:31:52.951Z,76.83
2023-02-09T17:34:26.896Z,76.78
2023-02-09T17:36:54.766Z,76.99
2023-02-09T17:39:22.465Z,76.63
2023-02-09T17:41:51.710Z,76.42
2023-02-09T17:44:32.105Z,76.98
2023-02-09T17:47:07.358Z,77.17
2023-02-09T17:49:35.229Z,75.78
2023-02-09T17:52:03.021Z,76.00
2023-02-09T17:54:32.498Z,76.36
2023-02-09T17:57:01.641Z,75.94
2023-02-09T17:59:29.557Z,75.84
2023-02-09T18:01:58.799Z,77.52
2023-02-09T18:04:27.259Z,77.05
2023-02-09T18:06:57.670Z,77.32
2023-02-09T18:09:25.639Z,77.75
2023-02-09T18:11:59.748Z,77.06
2023-02-09T18:14:30.421Z,76.96
2023-02-09T18:16:58.480Z,76.46
2023-02-09T18:19:26.883Z,76.97
2023-02-09T18:21:58.679Z,76.91
2023-02-09T18:24:28.373Z,76.40
2023-02-09T18:26:56.884Z,76.81
2023-02-09T18:29:29.089Z,77.44
2023-02-09T18:31:59.953Z,78.18
2023-02-09T18:34:28.118Z,78.62
2023-02-09T18:36:56.004Z,79.11
2023-02-09T18:39:23.732Z,78.86
2023-02-09T18:41:54.214Z,78.80
2023-02-09T18:44:24.544Z,79.21
2023-02-09T18:46:52.380Z,78.26
2023-02-09T18:49:21.636Z,78.05
2023-02-09T18:51:49.734Z,77.66
2023-02-09T18:54:17.429Z,77.80
2023-02-09T18:56:45.244Z,77.99
2023-02-09T18:59:13.066Z,77.96
2023-02-09T19:01:41.123Z,78.30
2023-02-09T19:04:09.024Z,78.82
2023-02-09T19:06:38.694Z,78.53
2023-02-09T19:09:06.460Z,79.20
2023-02-09T19:11:34.398Z,79.16
2023-02-09T19:14:20.003Z,79.32
2023-02-09T19:16:47.853Z,78.84
2023-02-09T19:19:16.095Z,81.05
2023-02-09T19:21:45.185Z,80.94
2023-02-09T19:24:13.336Z,81.77
2023-02-09T19:26:41.083Z,84.02
2023-02-09T19:29:08.855Z,84.59
2023-02-09T19:31:36.637Z,82.77
2023-02-09T19:34:04.474Z,82.19
2023-02-09T19:36:32.289Z,82.35
2023-02-09T19:39:02.151Z,80.95
2023-02-09T19:41:30.152Z,80.32
2023-02-09T19:43:58.844Z,81.85
2023-02-09T19:46:27.052Z,83.01
2023-02-09T19:48:54.840Z,83.44
2023-02-09T19:51:23.187Z,82.81
2023-02-09T19:53:51.307Z,82.69
2023-02-09T19:56:23.292Z,82.59
2023-02-09T19:58:51.781Z,82.65
2023-02-09T20:01:20.042Z,82.67
2023-02-09T20:03:49.421Z,82.69
2023-02-09T20:06:17.807Z,82.61
2023-02-09T20:08:45.625Z,82.52
2023-02-09T20:11:16.656Z,82.06
2023-02-09T20:13:46.240Z,82.24
2023-02-09T20:16:19.580Z,81.86
2023-02-09T20:18:48.701Z,82.37
2023-02-09T20:21:17.997Z,82.76
2023-02-09T20:23:46.804Z,83.10
2023-02-09T20:26:16.446Z,83.34
2023-02-09T20:28:45.648Z,84.35
2023-02-09T20:31:15.658Z,84.06
2023-02-09T20:33:43.713Z,83.50
2023-02-09T20:36:11.607Z,85.86
2023-02-09T20:38:39.458Z,86.80
2023-02-09T20:41:09.402Z,85.93
2023-02-09T20:43:55.211Z,83.93
2023-02-09T20:46:55.497Z,83.89
2023-02-09T20:49:25.765Z,82.17
2023-02-09T20:51:53.636Z,83.53
2023-02-09T20:54:21.467Z,82.22
2023-02-09T20:56:49.261Z,81.51
2023-02-09T20:59:17.533Z,81.73
2023-02-09T21:01:47.926Z,84.12
2023-02-09T21:04:15.694Z,83.90
2023-02-09T21:06:43.768Z,83.72
2023-02-09T21:09:14.289Z,83.73
2023-02-09T21:11:42.845Z,83.44
2023-02-09T21:14:21.738Z,83.52
2023-02-09T21:16:57.308Z,82.78
2023-02-09T21:19:25.945Z,83.53
2023-02-09T21:21:53.846Z,85.26
2023-02-09T21:24:21.707Z,84.49
2023-02-09T21:26:49.623Z,84.13
2023-02-09T21:29:17.376Z,84.06
2023-02-09T21:31:45.823Z,83.35
2023-02-09T21:34:16.089Z,85.03
2023-02-09T21:36:45.576Z,83.89
2023-02-09T21:39:13.893Z,81.35
2023-02-09T21:41:59.461Z,81.11
2023-02-09T21:44:27.340Z,81.95
2023-02-09T21:46:55.114Z,82.69
2023-02-09T21:49:24.682Z,83.07
2023-02-09T21:51:52.527Z,83.47
2023-02-09T21:54:20.244Z,83.66
2023-02-09T21:56:48.073Z,82.68
2023-02-09T21:59:15.832Z,83.57
2023-02-09T22:01:43.748Z,83.47
2023-02-09T22:04:11.896Z,83.54
2023-02-09T22:06:41.687Z,83.10
2023-02-09T22:09:09.638Z,83.75
2023-02-09T22:11:37.430Z,84.39
2023-02-09T22:14:05.404Z,83.53
2023-02-09T22:16:33.382Z,82.25
2023-02-09T22:19:01.290Z,81.50
2023-02-09T22:21:29.079Z,83.35
2023-02-09T22:23:58.266Z,83.92
2023-02-09T22:26:26.024Z,82.66
2023-02-09T22:28:53.747Z,82.08
2023-02-09T22:31:22.621Z,82.91
2023-02-09T22:33:54.256Z,83.96
2023-02-09T22:36:23.304Z,84.53
2023-02-09T22:38:51.540Z,84.28
2023-02-09T22:41:23.248Z,84.19
2023-02-09T22:43:52.271Z,85.67
2023-02-09T22:46:20.963Z,84.81
2023-02-09T22:48:52.342Z,83.46
2023-02-09T22:51:20.833Z,83.63
2023-02-09T22:53:49.248Z,83.51
2023-02-09T22:56:17.592Z,83.61
2023-02-09T22:58:46.730Z,84.04
2023-02-09T23:01:14.756Z,82.57
2023-02-09T23:03:42.857Z,81.44
2023-02-09T23:06:13.814Z,81.73
2023-02-09T23:08:41.597Z,80.69
2023-02-09T23:11:11.570Z,81.37
2023-02-09T23:13:40.130Z,83.22
2023-02-09T23:16:15.192Z,83.19
2023-02-09T23:18:48.208Z,82.84
2023-02-09T23:21:17.783Z,83.07
2023-02-09T23:23:45.774Z,83.84
2023-02-09T23:26:14.596Z,84.00
2023-02-09T23:28:42.557Z,84.10
2023-02-09T23:31:14.860Z,83.85
2023-02-09T23:33:43.004Z,83.63
2023-02-09T23:36:12.865Z,84.37
2023-02-09T23:38:40.930Z,83.56
2023-02-09T23:41:09.718Z,83.83
2023-02-09T23:43:37.958Z,82.39
2023-02-09T23:46:08.901Z,82.47
2023-02-09T23:48:38.092Z,82.78
2023-02-09T23:51:07.822Z,82.20
2023-02-09T23:53:36.559Z,82.31
2023-02-09T23:56:04.892Z,81.63
2023-02-09T23:58:32.928Z,83.71
